Time;durP1;ratioP1;P1;durP2;ratioP2;P2;SDS_P1;SDS_P2;PMS_P1;PMS_P2;Temp;Humidity;BMP_temperature;BMP_pressure;BME280_temperature;BME280_humidity;BME280_pressure;Samples;Min_cycle;Max_cycle;Signal;HPM_P1;HPM_P2
2021/06/25 00:01:54;;;;;;;2.50;2.00;;;31.40;63.60;;;;;;5065459;28;20447;-25
2021/06/25 00:04:25;;;;;;;2.20;1.70;;;31.30;64.00;;;;;;5065080;28;20486;-24
2021/06/25 00:06:56;;;;;;;1.87;1.77;;;31.10;63.10;;;;;;5064870;28;20525;-26
2021/06/25 00:09:28;;;;;;;1.90;1.80;;;31.00;64.70;;;;;;5061481;28;20451;-21
2021/06/25 00:11:59;;;;;;;2.03;1.93;;;31.10;64.40;;;;;;5065165;28;20443;-22
2021/06/25 00:14:32;;;;;;;1.70;1.60;;;31.30;64.70;;;;;;5065000;28;20573;-25
2021/06/25 00:17:04;;;;;;;1.87;1.77;;;31.40;63.70;;;;;;5065123;28;20450;-26
2021/06/25 00:19:35;;;;;;;2.20;1.60;;;31.40;62.70;;;;;;5063707;28;20470;-25
2021/06/25 00:22:06;;;;;;;1.77;1.67;;;31.50;59.80;;;;;;5064017;28;20473;-25
2021/06/25 00:24:39;;;;;;;2.10;1.90;;;31.40;61.60;;;;;;5063913;28;20462;-26
2021/06/25 00:27:10;;;;;;;4.90;1.90;;;31.50;61.20;;;;;;5064386;28;20551;-26
2021/06/25 00:29:41;;;;;;;1.80;1.70;;;31.40;60.00;;;;;;5068967;28;20487;-25
2021/06/25 00:32:12;;;;;;;3.23;1.60;;;31.40;59.70;;;;;;5064281;28;20489;-26
2021/06/25 00:34:43;;;;;;;3.50;1.77;;;31.40;59.40;;;;;;5064234;28;20818;-24
2021/06/25 00:37:14;;;;;;;2.70;1.80;;;31.40;60.80;;;;;;5064273;28;20445;-27
2021/06/25 00:39:47;;;;;;;1.70;1.60;;;31.40;60.50;;;;;;5063364;28;20450;-26
2021/06/25 00:42:19;;;;;;;2.40;2.20;;;31.50;60.90;;;;;;5063539;28;20777;-29
2021/06/25 00:44:50;;;;;;;2.10;2.00;;;31.60;59.50;;;;;;5063947;28;20481;-23
2021/06/25 00:47:21;;;;;;;1.90;1.80;;;31.40;60.30;;;;;;5064100;28;20540;-25
2021/06/25 00:49:53;;;;;;;2.57;1.80;;;31.30;60.50;;;;;;5063636;28;20485;-27
2021/06/25 00:52:24;;;;;;;1.97;1.87;;;31.10;61.60;;;;;;5064172;28;20450;-25
2021/06/25 00:54:56;;;;;;;2.10;2.00;;;31.10;61.20;;;;;;5063690;28;20432;-25
2021/06/25 00:57:27;;;;;;;1.73;1.63;;;31.10;62.70;;;;;;5053794;28;20518;-24
2021/06/25 00:59:58;;;;;;;2.80;2.10;;;31.10;61.10;;;;;;5062258;28;20838;-24
2021/06/25 01:02:29;;;;;;;1.93;1.63;;;31.00;61.40;;;;;;5064117;28;20454;-24
2021/06/25 01:05:01;;;;;;;2.00;1.90;;;30.80;62.00;;;;;;5064036;28;20783;-26
2021/06/25 01:07:35;;;;;;;2.13;1.73;;;30.50;62.20;;;;;;5064419;28;20584;-29
2021/06/25 01:10:10;;;;;;;3.27;2.00;;;30.50;62.50;;;;;;5062923;28;20453;-26
2021/06/25 01:12:43;;;;;;;2.33;2.13;;;30.50;62.90;;;;;;5061632;28;20460;-25
2021/06/25 01:15:16;;;;;;;5.03;1.90;;;30.50;62.30;;;;;;5063935;28;20515;-25
2021/06/25 01:17:48;;;;;;;1.93;1.60;;;30.40;60.70;;;;;;5063554;28;20942;-26
2021/06/25 01:20:24;;;;;;;2.50;1.70;;;30.40;62.70;;;;;;5063493;28;20555;-25
2021/06/25 01:22:58;;;;;;;1.90;1.80;;;30.30;63.30;;;;;;5063230;28;20464;-24
2021/06/25 01:25:31;;;;;;;2.70;1.90;;;30.30;61.30;;;;;;5063186;28;20454;-25
2021/06/25 01:28:03;;;;;;;1.97;1.87;;;30.20;61.90;;;;;;5063665;28;20556;-24
2021/06/25 01:30:37;;;;;;;1.67;1.57;;;30.10;59.20;;;;;;5062973;28;20537;-24
2021/06/25 01:33:10;;;;;;;2.00;1.73;;;30.00;59.40;;;;;;5058456;28;20515;-27
2021/06/25 01:35:41;;;;;;;1.87;1.77;;;29.90;59.60;;;;;;5049448;28;20464;-26
2021/06/25 01:38:15;;;;;;;2.57;1.63;;;29.80;60.80;;;;;;5063506;28;20473;-27
2021/06/25 01:40:47;;;;;;;2.00;1.80;;;29.80;60.30;;;;;;5062060;28;20445;-22
2021/06/25 01:43:19;;;;;;;4.43;3.30;;;29.70;61.00;;;;;;5062094;28;20474;-27
2021/06/25 01:45:50;;;;;;;2.00;1.90;;;29.60;62.00;;;;;;5062801;28;20460;-24
2021/06/25 01:48:21;;;;;;;2.17;1.73;;;29.50;62.60;;;;;;5062076;28;20568;-25
2021/06/25 01:50:54;;;;;;;1.90;1.67;;;29.50;63.00;;;;;;5062692;28;20455;-24
2021/06/25 01:53:26;;;;;;;2.73;1.83;;;29.50;63.50;;;;;;5046371;28;20537;-22
2021/06/25 01:56:00;;;;;;;4.10;2.07;;;29.30;62.80;;;;;;5062387;28;20453;-27
2021/06/25 01:58:32;;;;;;;1.80;1.70;;;29.20;64.00;;;;;;5062760;28;20460;-24
2021/06/25 02:01:10;;;;;;;1.90;1.80;;;29.20;64.00;;;;;;5062170;28;20486;-29
2021/06/25 02:03:43;;;;;;;1.80;1.70;;;29.20;64.70;;;;;;5062743;28;20459;-24
2021/06/25 02:06:15;;;;;;;2.17;1.97;;;29.20;63.80;;;;;;5062662;28;20526;-25
2021/06/25 02:08:48;;;;;;;2.60;1.97;;;29.20;64.10;;;;;;5061612;28;20484;-24
2021/06/25 02:11:22;;;;;;;2.10;1.53;;;29.10;65.30;;;;;;5061582;28;20521;-24
2021/06/25 02:13:53;;;;;;;1.80;1.70;;;29.10;66.50;;;;;;5062720;28;20473;-24
2021/06/25 02:16:24;;;;;;;2.17;2.07;;;29.10;67.20;;;;;;5062800;28;20962;-22
2021/06/25 02:18:55;;;;;;;2.20;2.00;;;29.20;66.30;;;;;;5062082;28;20460;-23
2021/06/25 02:21:26;;;;;;;2.13;1.93;;;29.30;67.00;;;;;;5061310;28;20480;-26
2021/06/25 02:23:59;;;;;;;2.67;2.47;;;29.30;66.00;;;;;;5061768;28;20448;-22
2021/06/25 02:26:29;;;;;;;2.40;2.20;;;29.30;66.40;;;;;;5062515;28;20469;-26
2021/06/25 02:29:00;;;;;;;2.63;2.43;;;29.30;66.80;;;;;;5061804;28;20515;-28
2021/06/25 02:31:31;;;;;;;2.30;2.10;;;29.40;67.00;;;;;;5061082;28;20939;-24
2021/06/25 02:34:02;;;;;;;2.37;2.17;;;29.30;66.50;;;;;;5062123;28;20476;-23
2021/06/25 02:36:33;;;;;;;2.40;1.97;;;29.30;67.30;;;;;;5062437;28;20526;-24
2021/06/25 02:39:06;;;;;;;2.50;1.90;;;29.10;67.80;;;;;;5060453;28;20452;-23
2021/06/25 02:41:37;;;;;;;1.80;1.70;;;29.00;68.60;;;;;;5061923;28;20499;-26
2021/06/25 02:44:10;;;;;;;1.97;1.87;;;29.00;68.90;;;;;;5061534;28;20487;-24
2021/06/25 02:46:42;;;;;;;2.43;2.20;;;28.90;69.20;;;;;;5061999;28;20494;-25
2021/06/25 02:49:13;;;;;;;2.13;1.90;;;28.80;69.10;;;;;;5060001;28;20500;-24
2021/06/25 02:51:45;;;;;;;2.10;2.00;;;28.70;69.40;;;;;;5061481;28;20455;-25
2021/06/25 02:54:18;;;;;;;2.23;2.03;;;28.60;69.70;;;;;;5059370;28;20452;-23
2021/06/25 02:56:49;;;;;;;2.57;2.37;;;28.50;70.30;;;;;;5060437;28;20483;-25
2021/06/25 02:59:20;;;;;;;2.83;2.00;;;28.40;71.00;;;;;;5061479;28;20529;-22
2021/06/25 03:01:51;;;;;;;2.67;2.47;;;28.30;71.70;;;;;;5056512;28;20451;-26
2021/06/25 03:04:22;;;;;;;2.73;2.03;;;28.20;72.10;;;;;;5061659;28;20533;-25
2021/06/25 03:06:53;;;;;;;2.60;1.93;;;28.20;73.00;;;;;;5060781;28;20482;-26
2021/06/25 03:09:26;;;;;;;2.60;1.97;;;28.10;72.70;;;;;;5059392;28;20494;-24
2021/06/25 03:11:57;;;;;;;2.40;2.20;;;28.00;72.90;;;;;;5061081;28;20470;-22
2021/06/25 03:14:28;;;;;;;2.33;2.23;;;27.90;73.10;;;;;;5061934;28;20572;-24
2021/06/25 03:16:59;;;;;;;2.40;2.20;;;27.90;74.00;;;;;;5062170;28;20463;-24
2021/06/25 03:19:30;;;;;;;2.10;2.00;;;27.80;74.10;;;;;;5061187;28;20462;-24
2021/06/25 03:22:01;;;;;;;2.50;2.30;;;27.70;75.10;;;;;;5061751;28;20484;-23
2021/06/25 03:24:34;;;;;;;2.40;2.20;;;27.70;75.10;;;;;;5061034;28;20482;-23
2021/06/25 03:27:05;;;;;;;3.13;2.07;;;27.70;75.80;;;;;;5062406;28;20442;-23
2021/06/25 03:29:36;;;;;;;2.17;2.07;;;27.70;75.00;;;;;;5061349;28;20489;-22
2021/06/25 03:32:08;;;;;;;2.50;2.07;;;27.60;75.80;;;;;;5063457;28;20457;-24
2021/06/25 03:34:39;;;;;;;3.50;2.70;;;27.50;76.20;;;;;;5065500;28;20460;-23
2021/06/25 03:37:10;;;;;;;2.80;2.60;;;27.50;76.10;;;;;;5065408;28;20461;-25
2021/06/25 03:39:43;;;;;;;2.23;2.13;;;27.40;76.30;;;;;;5063855;28;20462;-23
2021/06/25 03:42:14;;;;;;;3.23;2.70;;;27.40;76.00;;;;;;5064725;28;20484;-23
2021/06/25 03:44:45;;;;;;;2.60;2.40;;;27.30;75.90;;;;;;5064943;28;20492;-23
2021/06/25 03:47:16;;;;;;;3.30;2.70;;;27.20;76.40;;;;;;5065426;28;20481;-23
2021/06/25 03:52:35;;;;;;;3.37;2.40;;;27.10;75.80;;;;;;5052826;28;20488;-25
2021/06/25 03:55:10;;;;;;;2.63;2.43;;;27.10;74.80;;;;;;5063647;28;20541;-23
2021/06/25 03:57:43;;;;;;;3.97;2.20;;;27.00;74.70;;;;;;5065640;28;20440;-25
2021/06/25 04:00:16;;;;;;;2.87;2.50;;;26.90;75.60;;;;;;5049104;28;20495;-23
2021/06/25 04:02:47;;;;;;;3.97;2.40;;;26.80;76.10;;;;;;5064837;28;20453;-23
2021/06/25 04:05:19;;;;;;;3.40;2.63;;;26.80;75.80;;;;;;5064495;28;20959;-23
2021/06/25 04:07:51;;;;;;;2.17;1.97;;;26.80;75.80;;;;;;5065280;28;20452;-22
2021/06/25 04:10:24;;;;;;;3.00;2.80;;;26.70;76.00;;;;;;5063438;28;20542;-24
2021/06/25 04:12:55;;;;;;;2.90;2.60;;;26.70;76.10;;;;;;5064236;28;20440;-24
2021/06/25 04:15:26;;;;;;;2.60;2.40;;;26.60;77.00;;;;;;5063525;28;20444;-25
2021/06/25 04:17:58;;;;;;;2.70;2.50;;;26.50;77.10;;;;;;5063742;28;20444;-22
2021/06/25 04:20:29;;;;;;;3.30;2.30;;;26.40;76.70;;;;;;5064382;28;20541;-22
2021/06/25 04:23:00;;;;;;;2.53;2.33;;;26.30;77.10;;;;;;5064392;28;20452;-26
2021/06/25 04:25:33;;;;;;;3.40;3.00;;;26.20;78.10;;;;;;5063196;28;20529;-23
2021/06/25 04:28:04;;;;;;;3.17;2.87;;;26.10;78.30;;;;;;5063415;28;20436;-25
2021/06/25 04:30:36;;;;;;;2.33;2.23;;;26.00;79.30;;;;;;5064169;28;20517;-22
2021/06/25 04:33:09;;;;;;;2.80;2.60;;;25.90;79.50;;;;;;5058756;28;20564;-24
2021/06/25 04:35:41;;;;;;;3.67;2.57;;;25.80;80.20;;;;;;5063313;28;20449;-22
2021/06/25 04:38:12;;;;;;;2.13;2.03;;;25.60;81.40;;;;;;5054308;28;20514;-23
2021/06/25 04:40:46;;;;;;;3.43;2.33;;;25.50;82.40;;;;;;5062983;28;20479;-23
2021/06/25 04:43:17;;;;;;;2.73;2.50;;;25.30;83.50;;;;;;5063191;28;20448;-24
2021/06/25 04:45:48;;;;;;;2.40;2.30;;;25.20;85.80;;;;;;5063972;28;20474;-23
2021/06/25 04:48:20;;;;;;;2.70;2.50;;;25.10;86.40;;;;;;5063978;28;20482;-24
2021/06/25 04:50:51;;;;;;;2.33;2.13;;;25.00;87.90;;;;;;5063418;28;20448;-28
2021/06/25 04:53:22;;;;;;;4.27;2.90;;;25.00;88.50;;;;;;5063379;28;20468;-23
2021/06/25 04:55:56;;;;;;;3.03;2.80;;;24.90;90.00;;;;;;5062923;28;20476;-25
2021/06/25 04:58:27;;;;;;;2.50;2.30;;;24.80;90.00;;;;;;5056124;28;20456;-23
2021/06/25 05:00:59;;;;;;;3.53;2.90;;;24.70;90.10;;;;;;5063186;28;20444;-24
2021/06/25 05:03:30;;;;;;;2.80;2.60;;;24.60;90.80;;;;;;5063368;28;20459;-24
2021/06/25 05:06:01;;;;;;;2.63;2.43;;;24.50;91.40;;;;;;5061856;28;20464;-27
2021/06/25 05:08:32;;;;;;;2.83;2.60;;;24.40;92.20;;;;;;5063463;28;20448;-23
2021/06/25 05:11:06;;;;;;;2.83;2.30;;;24.40;92.20;;;;;;5062665;28;20444;-25
2021/06/25 05:13:37;;;;;;;3.03;2.83;;;24.20;92.10;;;;;;5063394;28;20514;-25
2021/06/25 05:16:08;;;;;;;3.90;2.60;;;24.20;92.60;;;;;;5063135;28;20440;-23
2021/06/25 05:18:39;;;;;;;3.30;3.00;;;24.10;93.70;;;;;;5062710;28;20926;-25
2021/06/25 05:21:22;;;;;;;2.80;2.60;;;24.00;93.90;;;;;;5060997;28;20467;-24
2021/06/25 05:23:53;;;;;;;3.97;2.30;;;24.00;94.60;;;;;;5061154;28;20445;-24
2021/06/25 05:26:26;;;;;;;5.97;2.67;;;23.90;94.20;;;;;;5062272;28;20984;-22
2021/06/25 05:28:57;;;;;;;4.23;2.90;;;24.00;94.20;;;;;;5062578;28;20448;-23
2021/06/25 05:31:29;;;;;;;3.97;2.60;;;24.00;94.10;;;;;;5063173;28;20423;-26
2021/06/25 05:34:00;;;;;;;3.20;2.77;;;24.00;94.50;;;;;;5063181;28;20544;-24
2021/06/25 05:36:31;;;;;;;3.63;3.20;;;24.00;94.80;;;;;;5063225;28;20534;-22
2021/06/25 05:39:02;;;;;;;3.47;2.77;;;23.90;94.20;;;;;;5062611;28;20467;-24
2021/06/25 05:41:35;;;;;;;3.00;2.80;;;23.90;94.20;;;;;;5063079;28;20459;-23
2021/06/25 05:44:06;;;;;;;2.83;2.63;;;23.90;94.70;;;;;;5053507;28;20423;-24
2021/06/25 05:46:37;;;;;;;3.07;2.77;;;23.70;95.10;;;;;;5063183;28;20475;-25
2021/06/25 05:49:09;;;;;;;2.97;2.43;;;23.70;95.30;;;;;;5062816;28;20580;-23
2021/06/25 05:51:41;;;;;;;3.10;2.90;;;23.60;95.00;;;;;;5062411;28;20501;-22
2021/06/25 05:54:15;;;;;;;2.87;2.67;;;23.60;95.10;;;;;;5060762;28;20513;-23
2021/06/25 05:56:47;;;;;;;4.73;3.00;;;23.60;95.30;;;;;;5062654;28;20455;-22
2021/06/25 05:59:18;;;;;;;3.50;2.67;;;23.40;95.80;;;;;;5062242;28;20455;-24
2021/06/25 06:01:49;;;;;;;3.20;3.00;;;23.30;96.00;;;;;;5062597;28;20532;-25
2021/06/25 06:04:20;;;;;;;4.47;3.00;;;23.30;96.20;;;;;;5062487;28;20461;-22
2021/06/25 06:06:51;;;;;;;3.10;2.43;;;23.20;96.60;;;;;;5062548;28;20530;-23
2021/06/25 06:09:22;;;;;;;3.40;2.90;;;23.20;96.80;;;;;;5061276;28;20500;-22
2021/06/25 06:11:55;;;;;;;3.00;2.80;;;23.10;96.80;;;;;;5063309;28;20503;-22
2021/06/25 06:14:26;;;;;;;3.27;3.00;;;23.10;97.10;;;;;;5062403;28;20452;-27
2021/06/25 06:16:57;;;;;;;3.23;2.80;;;23.00;97.40;;;;;;5062617;28;20533;-24
2021/06/25 06:19:37;;;;;;;4.70;2.67;;;23.00;99.00;;;;;;5062342;28;20426;-23
2021/06/25 06:33:22;;;;;;;2.67;2.47;;;22.70;99.70;;;;;;5062461;28;20550;-23
2021/06/25 06:35:56;;;;;;;4.07;2.80;;;22.60;99.90;;;;;;5056999;28;20441;-26
2021/06/25 06:38:29;;;;;;;4.73;2.87;;;22.50;99.90;;;;;;5062347;28;20448;-23
2021/06/25 06:41:00;;;;;;;2.87;2.67;;;22.50;99.90;;;;;;5060839;28;20449;-24
2021/06/25 06:43:38;;;;;;;2.67;2.47;;;22.50;99.90;;;;;;5062358;28;20484;-23
2021/06/25 06:46:11;;;;;;;3.97;3.13;;;22.40;99.90;;;;;;5061537;28;20415;-25
2021/06/25 06:48:44;;;;;;;3.20;2.63;;;22.40;99.90;;;;;;5062368;28;20475;-22
2021/06/25 06:51:20;;;;;;;2.63;2.40;;;22.30;99.90;;;;;;5062089;28;20492;-24
2021/06/25 06:53:52;;;;;;;3.50;2.53;;;22.20;99.90;;;;;;5061432;28;20452;-22
2021/06/25 06:56:23;;;;;;;4.67;3.00;;;22.20;99.90;;;;;;5058976;28;20468;-22
2021/06/25 06:58:59;;;;;;;4.00;3.00;;;22.20;99.90;;;;;;5057596;28;20431;-22
2021/06/25 07:01:32;;;;;;;3.17;2.20;;;22.20;99.90;;;;;;5062164;28;20477;-22
2021/06/25 07:04:23;;;;;;;3.17;2.90;;;22.10;99.90;;;;;;5061446;28;20440;-22
2021/06/25 07:06:54;;;;;;;4.63;3.07;;;22.00;99.90;;;;;;5065850;28;20437;-26
2021/06/25 07:09:25;;;;;;;3.17;2.83;;;22.00;99.90;;;;;;5065646;28;20498;-23
2021/06/25 07:11:56;;;;;;;3.10;2.77;;;21.90;99.90;;;;;;5065936;28;20488;-26
2021/06/25 07:14:29;;;;;;;3.40;2.47;;;21.90;99.90;;;;;;5065515;28;20459;-23
2021/06/25 07:17:01;;;;;;;6.20;2.70;;;21.80;99.90;;;;;;5065878;28;20427;-22
2021/06/25 07:19:32;;;;;;;2.73;2.40;;;21.70;99.90;;;;;;5065879;28;20426;-22
2021/06/25 07:22:03;;;;;;;3.33;3.03;;;21.70;99.90;;;;;;5066094;28;20414;-21
2021/06/25 07:24:34;;;;;;;4.43;3.00;;;21.70;99.90;;;;;;5064651;28;20479;-22
2021/06/25 07:27:05;;;;;;;5.27;2.80;;;21.60;99.90;;;;;;5066283;28;20452;-22
2021/06/25 07:29:38;;;;;;;2.80;2.40;;;21.70;99.90;;;;;;5065928;28;20480;-22
2021/06/25 07:32:09;;;;;;;2.47;2.27;;;21.50;99.90;;;;;;5066100;28;20457;-23
2021/06/25 07:34:41;;;;;;;4.47;2.70;;;21.50;99.90;;;;;;5065191;28;20461;-26
2021/06/25 07:37:12;;;;;;;3.07;2.77;;;21.50;99.90;;;;;;5066076;28;20436;-24
2021/06/25 07:39:42;;;;;;;3.43;3.13;;;21.40;99.90;;;;;;5054856;28;20449;-24
2021/06/25 07:42:13;;;;;;;2.70;2.50;;;21.40;99.90;;;;;;5065132;28;20459;-23
2021/06/25 07:44:46;;;;;;;3.70;2.80;;;21.30;99.90;;;;;;5065659;28;20457;-21
2021/06/25 07:47:17;;;;;;;3.00;2.67;;;21.30;99.90;;;;;;5064917;28;20574;-24
2021/06/25 07:49:49;;;;;;;3.60;3.20;;;21.30;99.90;;;;;;5065164;28;20450;-22
2021/06/25 07:52:20;;;;;;;3.23;2.93;;;21.30;99.90;;;;;;5066087;28;20440;-21
2021/06/25 07:54:51;;;;;;;8.37;3.07;;;21.20;99.90;;;;;;5064381;28;20436;-23
2021/06/25 07:57:25;;;;;;;3.83;3.30;;;21.20;99.90;;;;;;5064577;28;20456;-24
2021/06/25 07:59:59;;;;;;;3.53;2.70;;;21.10;99.90;;;;;;5065132;28;20513;-22
2021/06/25 08:02:29;;;;;;;4.87;2.73;;;21.10;99.90;;;;;;5065145;28;20483;-23
2021/06/25 08:05:01;;;;;;;3.30;3.00;;;21.10;99.90;;;;;;5065107;28;20501;-22
2021/06/25 08:07:31;;;;;;;4.40;3.17;;;21.00;99.90;;;;;;5065342;28;20442;-22
2021/06/25 08:10:03;;;;;;;3.07;2.87;;;21.00;99.90;;;;;;5063896;28;20498;-23
2021/06/25 08:12:34;;;;;;;3.30;3.00;;;20.90;99.90;;;;;;5064848;28;20447;-25
2021/06/25 08:15:08;;;;;;;3.27;2.97;;;20.80;99.90;;;;;;5064672;28;20435;-23
2021/06/25 08:17:39;;;;;;;3.10;2.90;;;20.70;99.90;;;;;;5063845;28;20450;-23
2021/06/25 08:20:12;;;;;;;3.70;2.83;;;20.80;99.90;;;;;;5064286;28;20456;-22
2021/06/25 08:22:43;;;;;;;3.47;3.03;;;20.80;99.90;;;;;;5062449;28;20783;-25
2021/06/25 08:25:14;;;;;;;2.97;2.70;;;20.80;99.90;;;;;;5063422;28;20426;-23
2021/06/25 08:27:46;;;;;;;3.37;3.07;;;20.80;99.90;;;;;;5063634;28;20475;-23
2021/06/25 08:30:24;;;;;;;5.67;3.43;;;20.80;99.90;;;;;;5064447;28;20459;-26
2021/06/25 08:32:56;;;;;;;2.60;2.40;;;20.70;99.90;;;;;;5064448;28;20744;-23
2021/06/25 08:35:27;;;;;;;4.23;3.10;;;20.60;99.90;;;;;;5063995;28;20464;-22
2021/06/25 08:37:58;;;;;;;4.00;3.10;;;20.60;99.90;;;;;;5064538;28;20450;-22
2021/06/25 08:40:29;;;;;;;4.60;3.30;;;20.50;99.90;;;;;;5062510;28;20426;-22
2021/06/25 08:43:02;;;;;;;4.17;3.37;;;20.50;99.90;;;;;;5064084;28;20418;-21
2021/06/25 08:45:35;;;;;;;3.50;3.30;;;20.50;99.90;;;;;;5063978;28;20956;-22
2021/06/25 08:48:09;;;;;;;3.80;3.13;;;20.40;99.90;;;;;;5063519;28;20477;-22
2021/06/25 08:50:42;;;;;;;3.87;3.47;;;20.40;99.90;;;;;;5063804;28;20456;-25
2021/06/25 08:53:15;;;;;;;5.37;3.60;;;20.40;99.90;;;;;;5064744;28;20448;-24
2021/06/25 08:55:46;;;;;;;3.67;3.37;;;20.40;99.90;;;;;;5063389;28;20441;-22
2021/06/25 08:58:18;;;;;;;4.47;4.07;;;20.40;99.90;;;;;;5059366;28;20485;-24
2021/06/25 09:00:52;;;;;;;4.40;4.10;;;20.30;99.90;;;;;;5063435;28;20448;-21
2021/06/25 09:03:25;;;;;;;4.27;3.87;;;20.30;99.90;;;;;;5064055;28;20462;-26
2021/06/25 09:06:10;;;;;;;4.00;3.60;;;20.20;99.90;;;;;;5063222;28;20445;-22
2021/06/25 09:08:41;;;;;;;4.20;3.77;;;20.20;99.90;;;;;;5052364;28;20431;-22
2021/06/25 09:11:24;;;;;;;3.40;3.20;;;20.10;99.90;;;;;;5063088;28;20502;-23
2021/06/25 09:14:01;;;;;;;4.13;3.43;;;20.10;99.90;;;;;;5047504;28;20478;-25
2021/06/25 09:16:35;;;;;;;4.90;3.70;;;20.10;99.90;;;;;;5063093;28;20980;-24
2021/06/25 09:19:08;;;;;;;3.93;3.63;;;19.90;99.90;;;;;;5063212;28;20572;-22
2021/06/25 09:21:44;;;;;;;3.40;3.10;;;19.90;99.90;;;;;;5063582;28;20426;-22
2021/06/25 09:24:20;;;;;;;5.20;3.77;;;19.90;99.90;;;;;;5062530;28;20467;-23
2021/06/25 09:26:52;;;;;;;3.77;3.47;;;19.90;99.90;;;;;;5063372;28;20479;-22
2021/06/25 09:29:27;;;;;;;4.10;3.20;;;19.80;99.90;;;;;;5062239;28;20484;-22
2021/06/25 09:32:02;;;;;;;3.80;3.30;;;19.80;99.90;;;;;;5063497;28;20458;-22
2021/06/25 09:34:38;;;;;;;3.80;3.60;;;19.80;99.90;;;;;;5062043;28;20452;-23
2021/06/25 09:37:12;;;;;;;4.00;3.70;;;19.70;99.90;;;;;;5062607;28;20536;-24
2021/06/25 09:39:44;;;;;;;4.10;3.70;;;19.70;99.90;;;;;;5062454;28;20460;-23
2021/06/25 09:42:22;;;;;;;5.50;4.10;;;19.70;99.90;;;;;;5058785;28;20810;-22
2021/06/25 09:45:00;;;;;;;3.90;3.60;;;19.70;99.90;;;;;;5062931;28;20480;-21
2021/06/25 09:47:33;;;;;;;4.13;3.83;;;19.70;99.90;;;;;;5058514;28;20452;-23
2021/06/25 09:50:16;;;;;;;4.13;3.73;;;19.60;99.90;;;;;;5058936;28;20477;-25
2021/06/25 09:53:05;;;;;;;4.37;3.97;;;19.60;99.90;;;;;;5063001;28;20520;-21
2021/06/25 09:55:50;;;;;;;4.00;3.70;;;19.50;99.90;;;;;;5061941;28;20457;-22
2021/06/25 10:01:25;;;;;;;4.10;3.67;;;19.50;99.90;;;;;;5058758;28;20511;-23
2021/06/25 10:03:59;;;;;;;4.50;4.10;;;19.40;99.90;;;;;;5047961;28;20514;-22
2021/06/25 10:06:32;;;;;;;4.17;3.87;;;19.40;99.90;;;;;;5062777;28;20448;-21
2021/06/25 10:09:05;;;;;;;4.70;4.20;;;19.30;99.90;;;;;;5062392;28;20512;-22
2021/06/25 10:11:37;;;;;;;4.83;3.60;;;19.30;99.90;;;;;;5062341;28;20503;-22
2021/06/25 10:14:08;;;;;;;4.43;3.97;;;19.20;99.90;;;;;;5061891;28;20423;-22
2021/06/25 10:16:39;;;;;;;4.53;3.97;;;19.20;99.90;;;;;;5062455;28;20465;-23
2021/06/25 10:19:15;;;;;;;4.83;4.43;;;19.20;99.90;;;;;;5054950;28;20435;-22
2021/06/25 10:21:46;;;;;;;4.87;4.30;;;19.20;99.90;;;;;;5062665;28;20459;-22
2021/06/25 10:24:19;;;;;;;5.57;4.50;;;19.20;99.90;;;;;;5061784;28;20472;-24
2021/06/25 10:26:51;;;;;;;5.07;4.67;;;19.20;99.90;;;;;;5062591;28;20460;-21
2021/06/25 10:29:22;;;;;;;7.10;4.63;;;19.10;99.90;;;;;;5061219;28;20419;-22
2021/06/25 10:31:54;;;;;;;11.00;8.63;;;19.00;99.90;;;;;;5062395;28;21101;-23
2021/06/25 10:34:27;;;;;;;8.63;6.70;;;19.00;99.90;;;;;;5061691;28;20538;-22
2021/06/25 10:36:58;;;;;;;8.73;6.30;;;19.10;99.90;;;;;;5062054;28;20452;-22
2021/06/25 10:39:32;;;;;;;10.07;6.17;;;19.00;99.90;;;;;;5060574;28;20486;-22
2021/06/25 10:42:04;;;;;;;8.63;4.60;;;19.10;99.90;;;;;;5062302;28;20464;-24
2021/06/25 10:44:37;;;;;;;6.97;4.80;;;19.10;99.90;;;;;;5061344;28;20767;-22
2021/06/25 10:47:22;;;;;;;5.33;4.83;;;19.00;99.90;;;;;;5061902;28;20905;-22
2021/06/25 10:50:33;;;;;;;5.80;4.43;;;19.00;99.90;;;;;;5061391;28;20539;-22
2021/06/25 10:53:14;;;;;;;5.23;4.70;;;18.90;99.90;;;;;;5062019;28;20697;-21
2021/06/25 10:56:00;;;;;;;6.80;4.43;;;18.90;99.90;;;;;;5061175;28;20473;-21
2021/06/25 10:58:31;;;;;;;4.93;4.33;;;18.90;99.90;;;;;;5061887;28;20487;-22
2021/06/25 11:01:04;;;;;;;5.23;4.40;;;18.90;99.90;;;;;;5061595;28;21303;-22
2021/06/25 11:03:41;;;;;;;4.30;3.93;;;18.80;99.90;;;;;;5061994;28;20461;-24
2021/06/25 11:06:53;;;;;;;4.67;4.07;;;18.70;99.90;;;;;;5061448;28;20426;-23
2021/06/25 11:09:49;;;;;;;4.97;4.47;;;18.70;99.90;;;;;;5060583;28;20461;-21
2021/06/25 11:12:24;;;;;;;4.77;4.23;;;18.70;99.90;;;;;;5055034;28;20482;-21
2021/06/25 11:14:57;;;;;;;5.13;4.63;;;18.70;99.90;;;;;;5053711;28;20479;-21
2021/06/25 11:17:48;;;;;;;4.57;4.10;;;18.60;99.90;;;;;;5061361;28;20594;-24
2021/06/25 11:20:22;;;;;;;4.73;3.70;;;18.70;99.90;;;;;;5061032;28;20456;-21
2021/06/25 11:22:59;;;;;;;4.50;4.10;;;18.70;99.90;;;;;;5061970;28;20423;-22
2021/06/25 11:25:44;;;;;;;5.50;4.43;;;18.70;99.90;;;;;;5061425;28;20445;-21
2021/06/25 11:28:23;;;;;;;4.80;4.40;;;18.70;99.90;;;;;;5044010;28;20444;-22
2021/06/25 11:31:00;;;;;;;4.03;3.70;;;18.60;99.90;;;;;;5055841;28;20890;-21
2021/06/25 11:33:34;;;;;;;5.07;4.50;;;18.50;99.90;;;;;;5061583;28;20483;-22
2021/06/25 11:36:37;;;;;;;4.80;4.23;;;18.50;99.90;;;;;;5061406;28;20498;-23
2021/06/25 11:39:27;;;;;;;6.40;5.07;;;18.50;99.90;;;;;;5017702;28;20525;-22
2021/06/25 11:42:02;;;;;;;4.40;4.03;;;18.50;99.90;;;;;;5013953;28;20514;-23
2021/06/25 11:44:35;;;;;;;4.97;3.90;;;18.50;99.90;;;;;;5018821;28;20497;-21
2021/06/25 11:47:10;;;;;;;5.03;4.50;;;18.50;99.90;;;;;;5019385;28;20870;-23
2021/06/25 11:49:46;;;;;;;4.83;4.27;;;18.50;99.90;;;;;;5018746;28;20573;-22
2021/06/25 11:52:19;;;;;;;4.40;4.00;;;18.40;99.90;;;;;;5020635;28;20466;-21
2021/06/25 11:54:52;;;;;;;4.70;4.23;;;18.50;99.90;;;;;;5021763;28;20497;-24
2021/06/25 11:57:27;;;;;;;4.40;4.10;;;18.50;99.90;;;;;;5023034;28;20494;-23
2021/06/25 12:00:04;;;;;;;5.10;4.70;;;18.40;99.90;;;;;;5021782;28;20454;-22
2021/06/25 12:02:46;;;;;;;5.97;4.63;;;18.20;99.90;;;;;;5022533;28;20454;-22
2021/06/25 12:05:18;;;;;;;6.30;4.60;;;18.20;99.90;;;;;;5022596;28;20442;-21
2021/06/25 12:08:02;;;;;;;5.00;4.30;;;18.20;99.90;;;;;;5016984;28;20540;-22
2021/06/25 12:10:40;;;;;;;7.70;4.50;;;18.30;99.90;;;;;;5021509;28;20447;-22
2021/06/25 12:13:13;;;;;;;6.07;4.93;;;18.20;99.90;;;;;;5022549;28;20482;-22
2021/06/25 12:15:49;;;;;;;4.87;4.47;;;18.30;99.90;;;;;;5058488;28;20448;-22
2021/06/25 12:18:21;;;;;;;4.70;4.30;;;18.20;99.90;;;;;;5064506;28;20573;-21
2021/06/25 12:21:05;;;;;;;5.83;4.93;;;18.20;99.90;;;;;;5064105;28;20455;-21
2021/06/25 12:23:36;;;;;;;5.20;4.47;;;18.20;99.90;;;;;;5061835;28;20506;-21
2021/06/25 12:26:15;;;;;;;4.87;4.47;;;18.10;99.90;;;;;;5063914;28;20493;-22
2021/06/25 12:28:49;;;;;;;5.67;5.03;;;18.10;99.90;;;;;;5064990;28;20534;-21
2021/06/25 12:31:27;;;;;;;5.03;4.53;;;18.00;99.90;;;;;;5064435;28;20452;-23
2021/06/25 12:34:07;;;;;;;5.40;4.90;;;18.00;99.90;;;;;;5064053;28;20483;-22
2021/06/25 12:36:38;;;;;;;4.93;4.43;;;18.00;99.90;;;;;;5048945;28;20423;-23
2021/06/25 12:39:11;;;;;;;6.30;4.83;;;18.00;99.90;;;;;;5062947;28;20468;-22
2021/06/25 12:41:43;;;;;;;5.10;4.60;;;18.10;99.90;;;;;;5064182;28;20471;-21
2021/06/25 12:44:23;;;;;;;5.00;4.50;;;18.10;99.90;;;;;;5064339;28;21359;-21
2021/06/25 12:47:05;;;;;;;5.47;4.70;;;18.10;99.90;;;;;;5058135;28;20529;-19
2021/06/25 12:49:37;;;;;;;4.40;4.00;;;18.10;99.90;;;;;;5061010;28;20476;-21
2021/06/25 12:52:23;;;;;;;5.80;4.50;;;18.10;99.90;;;;;;5063509;28;20479;-21
2021/06/25 12:54:55;;;;;;;4.90;4.50;;;18.10;99.90;;;;;;5048300;28;20490;-22
2021/06/25 12:57:26;;;;;;;6.03;5.40;;;18.20;99.90;;;;;;5064216;28;20457;-22
2021/06/25 12:59:59;;;;;;;6.03;4.40;;;18.20;99.90;;;;;;5063894;28;20487;-22
2021/06/25 13:02:31;;;;;;;4.90;4.40;;;18.30;99.90;;;;;;5063762;28;20453;-21
2021/06/25 13:05:02;;;;;;;5.00;4.53;;;18.50;99.90;;;;;;5063746;28;20475;-21
2021/06/25 13:07:33;;;;;;;4.33;3.70;;;18.60;99.90;;;;;;5063187;28;20472;-21
2021/06/25 13:10:12;;;;;;;5.03;4.43;;;18.80;99.90;;;;;;5062674;28;20964;-25
2021/06/25 13:12:44;;;;;;;6.47;4.17;;;18.90;99.90;;;;;;5063375;28;20458;-22
2021/06/25 13:15:16;;;;;;;9.90;4.67;;;19.00;99.90;;;;;;5063531;28;20455;-22
2021/06/25 13:17:50;;;;;;;5.07;4.43;;;19.10;99.90;;;;;;5048428;28;20512;-21
2021/06/25 13:20:54;;;;;;;5.17;4.70;;;19.20;99.90;;;;;;5063007;28;20476;-22
2021/06/25 13:23:25;;;;;;;5.73;4.10;;;19.30;99.90;;;;;;5046804;28;20444;-23
2021/06/25 13:26:00;;;;;;;4.67;4.27;;;19.30;99.90;;;;;;5062577;28;20423;-21
2021/06/25 13:28:31;;;;;;;4.77;4.30;;;19.40;99.90;;;;;;5064050;28;20451;-22
2021/06/25 13:31:08;;;;;;;5.47;4.67;;;19.50;99.90;;;;;;5063078;28;20427;-21
2021/06/25 13:33:43;;;;;;;5.30;4.83;;;19.60;99.90;;;;;;5063551;28;20472;-23
2021/06/25 13:36:14;;;;;;;4.67;4.20;;;19.70;99.90;;;;;;5063643;28;20440;-24
2021/06/25 13:38:46;;;;;;;4.30;4.00;;;19.80;99.90;;;;;;5063274;28;20452;-22